Time;durP1;ratioP1;P1;durP2;ratioP2;P2;SDS_P1;SDS_P2;PMS_P1;PMS_P2;Temp;Humidity;BMP_temperature;BMP_pressure;BME280_temperature;BME280_humidity;BME280_pressure;Samples;Min_cycle;Max_cycle;Signal;HPM_P1;HPM_P2
2022/01/26 00:06:48;;;;;;;;;118.33;81.67;;;;;-2.61;92.79;100680.06;6281697;20;3683538;-43
2022/01/26 00:09:18;;;;;;;;;96.33;72.33;;;;;-2.96;94.42;100675.41;6314698;20;3655490;-43
2022/01/26 00:11:47;;;;;;;;;110.67;80.00;;;;;-2.42;92.90;100675.84;6282089;20;3691896;-42
2022/01/26 00:14:17;;;;;;;;;114.67;83.67;;;;;-2.66;92.93;100671.25;6281199;20;3702360;-42
2022/01/26 00:16:47;;;;;;;;;110.67;82.67;;;;;-2.66;92.73;100674.81;6279875;20;3690949;-42
2022/01/26 00:19:22;;;;;;;;;110.67;87.67;;;;;-3.03;93.70;100676.19;6280556;20;3679373;-43
2022/01/26 00:21:54;;;;;;;;;110.67;83.33;;;;;-2.66;92.84;100676.53;6280791;20;3690875;-43
2022/01/26 00:27:22;;;;;;;;;111.00;84.33;;;;;-2.72;91.75;100668.59;6280873;20;3694203;-43
2022/01/26 00:30:04;;;;;;;;;110.00;83.33;;;;;-2.67;91.59;100659.00;6279519;20;3687737;-42
2022/01/26 00:41:04;;;;;;;;;109.67;87.33;;;;;-2.98;92.95;100673.63;6312804;20;3689790;-43
2022/01/26 00:43:36;;;;;;;;;115.67;84.00;;;;;-2.71;92.04;100675.63;6279392;20;3701259;-44
2022/01/26 00:46:07;;;;;;;;;106.67;83.67;;;;;-2.79;91.88;100674.66;6279495;20;3679423;-42
2022/01/26 00:48:38;;;;;;;;;111.33;82.00;;;;;-2.99;92.94;100680.63;6281236;20;3691888;-42
2022/01/26 00:51:09;;;;;;;;;108.00;80.33;;;;;-2.57;91.45;100676.63;6279495;20;3686715;-43
2022/01/26 00:53:44;;;;;;;;;106.33;74.67;;;;;-2.92;91.77;100676.34;6279765;20;3672120;-43
2022/01/26 00:56:15;;;;;;;;;109.33;80.67;;;;;-2.94;92.88;100681.56;6311770;20;3693034;-43
2022/01/26 00:58:46;;;;;;;;;113.67;91.33;;;;;-2.68;92.16;100678.28;6279821;20;3678383;-47
2022/01/26 01:01:16;;;;;;;;;110.67;83.67;;;;;-2.74;91.97;100683.47;6279769;20;3687713;-42
2022/01/26 01:03:47;;;;;;;;;110.00;86.00;;;;;-2.57;91.84;100687.13;6280910;20;3684614;-43
2022/01/26 01:08:48;;;;;;;;;112.67;88.00;;;;;-2.99;92.20;100675.38;6311735;20;3690839;-42
2022/01/26 01:11:18;;;;;;;;;109.00;82.33;;;;;-3.17;93.64;100670.81;6279709;20;3680540;-41
2022/01/26 01:13:49;;;;;;;;;100.33;77.00;;;;;-2.97;93.79;100675.41;6279751;20;3659615;-42
2022/01/26 01:16:22;;;;;;;;;114.33;89.67;;;;;-3.18;94.15;100674.31;6310444;20;3685363;-44
2022/01/26 01:19:09;;;;;;;;;112.33;85.33;;;;;-2.74;92.91;100678.22;6281174;20;3691049;-42
2022/01/26 01:27:41;;;;;;;;;114.33;90.00;;;;;-2.55;91.59;100668.75;6284410;20;3694118;-41
2022/01/26 01:33:04;;;;;;;;;109.33;80.67;;;;;-2.78;92.44;100666.81;6284038;20;3687715;-47
2022/01/26 01:35:43;;;;;;;;;117.00;83.67;;;;;-2.97;92.92;100673.66;6285467;20;3684643;-43
2022/01/26 01:38:16;;;;;;;;;111.00;88.00;;;;;-2.62;92.04;100678.31;6286605;20;3693995;-43
2022/01/26 01:40:49;;;;;;;;;106.33;85.00;;;;;-2.68;91.57;100679.16;6280965;20;3682533;-42
2022/01/26 01:43:22;;;;;;;;;113.67;84.67;;;;;-2.82;92.04;100677.28;6316366;20;3696106;-42
2022/01/26 01:45:55;;;;;;;;;105.33;80.00;;;;;-2.60;91.56;100681.84;6285132;20;3689830;-42
2022/01/26 01:48:30;;;;;;;;;111.00;75.67;;;;;-2.54;91.70;100670.50;6284809;20;3666927;-42
2022/01/26 01:51:06;;;;;;;;;91.00;71.00;;;;;-2.47;90.24;100683.72;6283794;20;2887804;-43
2022/01/26 01:53:41;;;;;;;;;103.67;78.33;;;;;-2.56;91.27;100678.38;6315754;20;3659611;-39
2022/01/26 01:56:17;;;;;;;;;97.33;66.67;;;;;-2.51;91.01;100681.91;6317322;20;3654642;-39
2022/01/26 01:58:47;;;;;;;;;107.67;77.67;;;;;-2.74;91.14;100673.88;6315221;20;3690920;-39
2022/01/26 02:01:17;;;;;;;;;112.00;87.67;;;;;-2.85;91.40;100680.75;6285427;20;3689816;-38
2022/01/26 02:03:47;;;;;;;;;109.33;84.33;;;;;-2.61;91.61;100673.94;6283863;20;3690950;-39
2022/01/26 02:06:17;;;;;;;;;108.00;78.00;;;;;-2.58;91.20;100679.22;6281430;20;3688918;-40
2022/01/26 02:08:47;;;;;;;;;107.67;77.67;;;;;-2.52;90.82;100672.28;6284220;20;3663798;-39
2022/01/26 02:11:17;;;;;;;;;106.33;83.33;;;;;-2.74;92.68;100671.22;6316631;20;3690850;-39
2022/01/26 02:14:11;;;;;;;;;107.33;77.00;;;;;-2.61;91.73;100679.19;6284797;20;3679428;-42
2022/01/26 03:01:17;;;;;;;;;108.67;84.67;;;;;-2.37;91.32;100653.09;6281024;20;3673176;-40
2022/01/26 03:04:03;;;;;;;;;108.33;85.67;;;;;-2.68;91.22;100646.75;6313387;20;3687827;-44
2022/01/26 03:06:45;;;;;;;;;112.00;84.00;;;;;-2.74;92.35;100654.56;6280790;20;3684629;-48
2022/01/26 03:09:19;;;;;;;;;115.00;88.00;;;;;-2.27;91.36;100648.75;6283453;20;3703731;-46
2022/01/26 03:11:49;;;;;;;;;110.67;84.33;;;;;-2.35;90.42;100653.09;6285574;20;3682553;-44
2022/01/26 03:18:04;;;;;;;;;108.33;85.00;;;;;-2.33;91.05;100648.72;6279262;20;3678338;-44
2022/01/26 03:20:07;;;;;;;;;114.33;87.33;;;;;-2.51;91.37;100638.97;6277302;20;3700245;-45
2022/01/26 03:31:17;;;;;;;;;110.00;78.67;;;;;-2.47;92.74;100644.28;6283643;20;3684735;-45
2022/01/26 03:36:17;;;;;;;;;108.67;82.67;;;;;-2.65;93.28;100633.63;6281249;20;3681599;-46
2022/01/26 03:38:56;;;;;;;;;116.33;83.67;;;;;-2.59;93.62;100641.53;6280696;20;3697489;-44
2022/01/26 03:41:38;;;;;;;;;108.00;85.00;;;;;-2.43;92.80;100637.25;6279590;20;3689826;-44
2022/01/26 03:44:09;;;;;;;;;106.00;79.67;;;;;-2.67;93.58;100636.22;6279256;20;3681466;-44
2022/01/26 03:46:40;;;;;;;;;121.33;93.00;;;;;-2.74;93.99;100641.41;6311887;20;3697084;-45
2022/01/26 03:49:11;;;;;;;;;111.00;87.33;;;;;-2.75;94.18;100639.66;6283258;20;3697060;-44
2022/01/26 03:51:43;;;;;;;;;98.00;77.33;;;;;-2.77;94.59;100644.91;6280504;20;2886753;-46
2022/01/26 03:54:16;;;;;;;;;115.00;91.33;;;;;-2.40;93.88;100637.28;6313808;20;3689843;-46
2022/01/26 03:56:46;;;;;;;;;111.33;85.33;;;;;-2.21;92.54;100639.16;6282985;20;3696139;-45
2022/01/26 03:59:17;;;;;;;;;137.75;100.50;;;;;-2.52;93.10;100647.75;6282398;20;3712800;-39
2022/01/26 04:01:47;;;;;;;;;117.33;91.67;;;;;-2.27;92.74;100638.25;6315499;20;3696064;-42
2022/01/26 04:04:17;;;;;;;;;112.33;94.67;;;;;-2.47;93.66;100633.75;6279634;20;3698142;-40
2022/01/26 04:06:47;;;;;;;;;106.67;76.00;;;;;-2.49;93.78;100635.47;6280955;20;3672116;-40
2022/01/26 04:09:18;;;;;;;;;110.67;86.00;;;;;-2.30;93.41;100641.72;6314853;20;3695204;-41
2022/01/26 04:11:50;;;;;;;;;109.33;83.67;;;;;-2.26;92.93;100627.75;6281700;20;3682689;-40
2022/01/26 04:14:25;;;;;;;;;104.00;84.00;;;;;-2.43;93.13;100626.75;6280215;20;3675236;-42
2022/01/26 04:16:57;;;;;;;;;112.67;78.00;;;;;-2.37;93.24;100626.81;6313625;20;3682494;-45
2022/01/26 04:19:30;;;;;;;;;110.67;82.00;;;;;-2.36;93.24;100618.03;6281146;20;3685729;-43
2022/01/26 04:24:47;;;;;;;;;103.67;76.00;;;;;-2.32;93.98;100619.78;6280658;20;3679476;-43
2022/01/26 04:29:48;;;;;;;;;105.33;80.00;;;;;-2.33;93.95;100625.94;6315328;20;3679400;-45
2022/01/26 04:32:18;;;;;;;;;103.00;74.67;;;;;-2.30;93.83;100623.31;6312393;20;3662711;-45
2022/01/26 04:34:49;;;;;;;;;107.33;81.00;;;;;-2.17;93.55;100624.28;6313254;20;3691984;-44
2022/01/26 04:40:02;;;;;;;;;108.67;84.33;;;;;-2.34;94.01;100616.31;6279876;20;3683697;-45
2022/01/26 04:45:08;;;;;;;;;112.00;93.50;;;;;-2.45;94.54;100618.88;6277884;20;2669082;-48
2022/01/26 04:47:39;;;;;;;;;96.33;73.33;;;;;-2.21;94.14;100622.53;6314225;20;3656550;-46
2022/01/26 04:50:11;;;;;;;;;105.33;76.00;;;;;-2.20;93.63;100619.00;6313062;20;3680711;-45
2022/01/26 04:52:45;;;;;;;;;112.33;81.00;;;;;-1.93;93.34;100620.00;6310972;20;3687713;-45
2022/01/26 04:55:15;;;;;;;;;106.33;78.33;;;;;-2.19;94.04;100618.13;6283535;20;3697158;-46
2022/01/26 04:57:45;;;;;;;;;104.33;82.67;;;;;-2.09;94.14;100612.03;6286760;20;3670079;-47
2022/01/26 05:00:18;;;;;;;;;109.00;83.00;;;;;-2.05;94.66;100613.81;6287447;20;3683563;-46
2022/01/26 05:02:48;;;;;;;;;110.67;83.67;;;;;-2.00;94.55;100617.34;6284656;20;3688747;-45
2022/01/26 05:05:17;;;;;;;;;106.33;80.67;;;;;-2.07;94.23;100605.03;6281197;20;3674196;-45
2022/01/26 05:07:47;;;;;;;;;104.33;80.33;;;;;-2.07;94.16;100607.66;6285254;20;3690938;-44
2022/01/26 05:10:18;;;;;;;;;105.00;77.33;;;;;-2.11;94.73;100607.63;6284903;20;3674188;-43
2022/01/26 05:12:48;;;;;;;;;125.67;96.33;;;;;-2.04;94.61;100619.97;6282068;20;3703362;-42
2022/01/26 05:15:21;;;;;;;;;118.67;94.67;;;;;-2.21;95.50;100612.88;6279798;20;3690866;-43
2022/01/26 05:17:51;;;;;;;;;112.00;90.33;;;;;-2.14;95.42;100615.53;6315852;20;3708545;-42
2022/01/26 05:20:21;;;;;;;;;112.33;87.00;;;;;-2.16;95.76;100612.00;6286272;20;3678332;-43
2022/01/26 05:22:50;;;;;;;;;105.33;76.00;;;;;-2.03;95.88;100605.91;6281191;20;3667962;-43
2022/01/26 05:25:20;;;;;;;;;106.33;81.67;;;;;-2.22;96.29;100610.22;6314559;20;3676273;-42
2022/01/26 05:27:50;;;;;;;;;111.00;79.33;;;;;-2.19;96.89;100614.63;6283463;20;3684672;-42
2022/01/26 05:30:20;;;;;;;;;110.67;81.67;;;;;-2.14;97.03;100611.13;6288500;20;3695103;-40
2022/01/26 05:32:50;;;;;;;;;105.33;77.00;;;;;-2.17;96.93;100611.13;6283897;20;3684624;-46
2022/01/26 05:35:20;;;;;;;;;106.33;76.00;;;;;-2.18;97.27;100612.00;6281641;20;3677407;-42
2022/01/26 05:37:50;;;;;;;;;101.67;75.33;;;;;-2.10;97.70;100615.56;6314900;20;3690040;-44
2022/01/26 05:40:20;;;;;;;;;100.33;73.67;;;;;-2.12;97.41;100617.28;6282652;20;3657504;-48
2022/01/26 05:42:50;;;;;;;;;115.25;93.00;;;;;-2.08;97.79;100613.81;6319936;20;3705450;-46
2022/01/26 05:45:36;;;;;;;;;107.33;87.00;;;;;-2.08;98.25;100619.06;6280812;20;3679465;-40
2022/01/26 05:48:10;;;;;;;;;108.67;79.00;;;;;-2.09;98.61;100617.28;6285387;20;3688765;-42
2022/01/26 05:50:49;;;;;;;;;105.33;80.00;;;;;-2.10;99.12;100620.81;6316785;20;3679480;-43
2022/01/26 05:53:23;;;;;;;;;113.67;86.67;;;;;-2.16;99.37;100627.78;6280937;20;3692069;-42
2022/01/26 05:55:53;;;;;;;;;99.00;73.67;;;;;-2.14;99.73;100626.91;6285580;20;3666909;-43
2022/01/26 05:58:24;;;;;;;;;112.33;85.00;;;;;-2.09;99.37;100632.22;6284715;20;3691921;-43
2022/01/26 06:00:58;;;;;;;;;114.00;84.33;;;;;-2.07;99.83;100620.81;6284510;20;3691919;-47
2022/01/26 06:03:30;;;;;;;;;118.00;86.00;;;;;-2.15;99.89;100630.44;6291086;20;3704502;-41
2022/01/26 06:06:01;;;;;;;;;108.00;84.33;;;;;-1.95;99.56;100627.88;6291398;20;3689756;-42
2022/01/26 06:08:32;;;;;;;;;108.00;87.67;;;;;-2.08;99.87;100629.59;6284981;20;3685640;-43
2022/01/26 06:11:02;;;;;;;;;112.00;84.67;;;;;-2.13;100.00;100636.59;6286756;20;3682537;-43
2022/01/26 06:13:32;;;;;;;;;107.67;76.00;;;;;-2.11;100.00;100637.44;6281842;20;3673167;-42
2022/01/26 06:16:01;;;;;;;;;114.67;80.33;;;;;-2.00;100.00;100638.41;6286886;20;3685620;-46
2022/01/26 06:18:32;;;;;;;;;111.33;86.00;;;;;-2.10;100.00;100633.97;6283481;20;3691001;-45
2022/01/26 06:21:03;;;;;;;;;111.67;87.00;;;;;-1.95;100.00;100634.91;6282221;20;3691932;-42
2022/01/26 06:23:36;;;;;;;;;114.00;87.00;;;;;-1.94;100.00;100639.31;6285295;20;3699299;-42
2022/01/26 06:26:07;;;;;;;;;108.67;85.00;;;;;-1.91;100.00;100644.59;6289261;20;3689925;-45
2022/01/26 06:28:40;;;;;;;;;109.00;81.00;;;;;-1.95;100.00;100645.44;6287008;20;3688882;-45
2022/01/26 06:31:14;;;;;;;;;115.00;86.00;;;;;-1.93;100.00;100639.28;6285189;20;3702294;-43
2022/01/26 06:33:47;;;;;;;;;105.67;74.00;;;;;-1.91;100.00;100640.19;6284829;20;3680457;-42
2022/01/26 06:36:17;;;;;;;;;110.00;83.33;;;;;-1.98;100.00;100639.25;6281065;20;3689831;-43
2022/01/26 06:38:49;;;;;;;;;110.33;81.33;;;;;-1.98;100.00;100635.75;6285557;20;3696140;-40
2022/01/26 06:41:24;;;;;;;;;126.00;94.67;;;;;-1.85;100.00;100637.56;6284925;20;3693042;-41
2022/01/26 06:44:04;;;;;;;;;109.67;82.00;;;;;-1.60;100.00;100635.94;6281093;20;3683604;-40
2022/01/26 06:47:32;;;;;;;;;113.00;88.33;;;;;-1.90;100.00;100638.44;6283330;20;3677461;-40
2022/01/26 06:49:30;;;;;;;;;110.67;85.67;;;;;-1.78;100.00;100647.25;6280075;20;3682609;-39
2022/01/26 06:52:01;;;;;;;;;116.00;85.00;;;;;-1.79;100.00;100642.88;6284213;20;3694992;-40
2022/01/26 06:54:31;;;;;;;;;115.67;84.67;;;;;-1.92;100.00;100637.53;6279153;20;3690840;-41
2022/01/26 06:57:01;;;;;;;;;116.33;92.67;;;;;-1.80;100.00;100637.59;6285386;20;3705407;-40
2022/01/26 06:59:31;;;;;;;;;148.00;119.00;;;;;-1.46;100.00;100641.22;6283786;20;4491959;-40
2022/01/26 07:02:02;;;;;;;;;139.00;102.00;;;;;-1.77;100.00;100641.13;6282213;20;3719059;-41
2022/01/26 07:04:32;;;;;;;;;118.33;87.67;;;;;-1.58;100.00;100636.81;6282053;20;3692928;-42
2022/01/26 07:07:01;;;;;;;;;109.33;83.33;;;;;-1.32;100.00;100633.34;6281127;20;3679383;-42
2022/01/26 07:09:31;;;;;;;;;116.33;85.33;;;;;-1.62;100.00;100635.03;6284299;20;3693098;-42
2022/01/26 07:12:01;;;;;;;;;109.67;77.67;;;;;-1.54;100.00;100637.69;6283160;20;3688744;-41
2022/01/26 07:22:57;;;;;;;;;106.33;75.67;;;;;-1.44;100.00;100639.47;6276816;20;3691001;-44
2022/01/26 07:25:27;;;;;;;;;111.33;82.67;;;;;-1.36;100.00;100634.25;6282861;20;3676293;-42
2022/01/26 07:27:58;;;;;;;;;106.00;73.00;;;;;-1.46;100.00;100635.09;6282528;20;3683623;-40
2022/01/26 07:30:28;;;;;;;;;107.33;75.67;;;;;-1.57;100.00;100633.28;6283504;20;3679439;-40
2022/01/26 07:32:58;;;;;;;;;103.00;76.33;;;;;-1.29;100.00;100632.47;6280791;20;3669012;-40
2022/01/26 07:35:27;;;;;;;;;98.00;76.67;;;;;-1.68;100.00;100632.41;6283388;20;3635669;-43
2022/01/26 07:37:59;;;;;;;;;99.33;75.00;;;;;-1.67;100.00;100642.03;6316384;20;3649202;-42
2022/01/26 07:40:31;;;;;;;;;197.75;159.25;;;;;-1.33;100.00;100644.78;6314194;20;4478388;-43
2022/01/26 07:43:01;;;;;;;;;123.50;91.00;;;;;-1.60;100.00;100633.28;6279689;20;3639961;-43
2022/01/26 07:45:30;;;;;;;;;117.00;81.00;;;;;-1.62;100.00;100635.03;6279255;20;3688749;-46
2022/01/26 07:48:00;;;;;;;;;117.33;92.00;;;;;-1.36;100.00;100644.78;6280830;20;3697124;-47
2022/01/26 07:50:30;;;;;;;;;115.67;95.67;;;;;-1.06;100.00;100645.69;6281273;20;3665927;-41
2022/01/26 07:53:02;;;;;;;;;122.00;95.75;;;;;-1.26;100.00;100638.66;6283088;20;3701403;-42
2022/01/26 07:55:32;;;;;;;;;112.00;85.33;;;;;-1.13;100.00;100640.44;6314000;20;3690899;-40
2022/01/26 07:58:02;;;;;;;;;112.33;92.33;;;;;-0.73;100.00;100645.72;6283108;20;3699168;-45
2022/01/26 08:00:32;;;;;;;;;157.00;119.75;;;;;-0.69;99.82;100647.47;6280055;20;3712840;-45
2022/01/26 08:03:03;;;;;;;;;162.25;128.75;;;;;-0.53;99.37;100640.41;6277304;20;3721413;-45
2022/01/26 08:05:34;;;;;;;;;143.00;110.00;;;;;-0.40;98.23;100640.41;6281138;20;3717992;-43
2022/01/26 08:08:05;;;;;;;;;152.75;125.50;;;;;-0.52;98.58;100638.69;6280608;20;4496109;-46
2022/01/26 08:10:36;;;;;;;;;136.75;108.25;;;;;-0.69;98.90;100636.03;6282901;20;3712723;-45
2022/01/26 08:13:06;;;;;;;;;112.00;84.00;;;;;-0.42;99.14;100634.25;6282342;20;3689797;-41
2022/01/26 08:15:35;;;;;;;;;104.33;79.00;;;;;-0.06;98.31;100631.53;6283672;20;3681566;-42
2022/01/26 08:18:06;;;;;;;;;104.33;75.67;;;;;0.08;97.02;100636.78;6284810;20;3686759;-43
2022/01/26 08:20:41;;;;;;;;;101.00;71.67;;;;;-0.03;96.93;100633.28;6284648;20;3674198;-43
2022/01/26 08:23:11;;;;;;;;;97.67;73.33;;;;;-0.06;97.14;100634.16;6281894;20;3664861;-42
2022/01/26 08:25:41;;;;;;;;;103.33;70.33;;;;;0.16;97.10;100635.00;6315252;20;3668940;-45
2022/01/26 08:28:19;;;;;;;;;103.00;72.00;;;;;-0.02;97.14;100637.69;6317261;20;3676227;-43
2022/01/26 08:30:49;;;;;;;;;100.00;76.33;;;;;0.13;97.24;100648.22;6288185;20;3664886;-44
2022/01/26 08:33:19;;;;;;;;;100.50;71.50;;;;;0.31;97.14;100641.94;6290319;20;3617977;-42
2022/01/26 08:35:48;;;;;;;;;98.67;71.67;;;;;0.35;96.36;100634.91;6322820;20;3660686;-42
2022/01/26 08:38:19;;;;;;;;;96.67;72.00;;;;;0.58;95.67;100638.31;6323644;20;3668357;-42
2022/01/26 08:40:50;;;;;;;;;102.67;73.00;;;;;0.76;95.02;100637.31;6322054;20;3680500;-43
2022/01/26 08:43:20;;;;;;;;;102.67;78.67;;;;;0.49;95.47;100635.72;6291785;20;3684620;-43
2022/01/26 08:45:50;;;;;;;;;101.33;75.33;;;;;0.62;95.00;100634.75;6291671;20;3679385;-42
2022/01/26 08:48:19;;;;;;;;;94.67;70.67;;;;;0.74;95.51;100638.19;6288909;20;3643972;-43
2022/01/26 08:50:49;;;;;;;;;105.00;72.00;;;;;0.74;95.34;100638.19;6320975;20;3683564;-44
2022/01/26 08:53:19;;;;;;;;;97.50;69.00;;;;;0.96;95.83;100639.84;6289980;20;2864841;-45
2022/01/26 08:55:51;;;;;;;;;100.00;73.00;;;;;1.12;95.51;100637.09;6320420;20;3672098;-45
2022/01/26 08:58:21;;;;;;;;;97.67;74.00;;;;;1.24;94.96;100639.66;6292108;20;3652269;-46
2022/01/26 09:00:52;;;;;;;;;99.67;71.33;;;;;1.46;94.24;100635.91;6320218;20;3675293;-46
2022/01/26 09:03:22;;;;;;;;;96.67;71.00;;;;;1.30;94.74;100639.59;6292346;20;3661716;-45
2022/01/26 09:05:52;;;;;;;;;96.33;66.33;;;;;1.63;93.79;100646.31;6291939;20;3647120;-48
2022/01/26 09:08:24;;;;;;;;;96.33;71.67;;;;;1.51;94.56;100644.69;6320373;20;3671024;-47
2022/01/26 09:10:59;;;;;;;;;95.33;71.33;;;;;1.71;93.32;100647.16;6288061;20;3656434;-46
2022/01/26 09:13:31;;;;;;;;;97.00;71.00;;;;;1.79;92.99;100641.78;6287961;20;3673158;-46
2022/01/26 09:16:08;;;;;;;;;97.33;74.00;;;;;1.67;93.25;100631.31;6290640;20;3665828;-47
2022/01/26 09:21:08;;;;;;;;;106.25;87.00;;;;;2.19;91.26;100634.25;6290024;20;3694057;-50
2022/01/26 09:23:37;;;;;;;;;89.00;71.67;;;;;2.37;90.36;100633.16;6320232;20;3636683;-52
2022/01/26 09:26:07;;;;;;;;;96.67;69.33;;;;;2.45;90.36;100641.00;6319272;20;3661777;-49
2022/01/26 09:28:37;;;;;;;;;94.33;70.00;;;;;2.64;89.37;100631.91;6287230;20;3681627;-46
2022/01/26 09:31:06;;;;;;;;;81.50;61.00;;;;;2.71;89.42;100639.75;6288298;20;2866927;-47
2022/01/26 09:33:36;;;;;;;;;95.67;71.67;;;;;2.79;88.46;100636.13;6289575;20;3679496;-47
2022/01/26 09:36:07;;;;;;;;;100.33;76.67;;;;;2.80;88.17;100632.56;6290526;20;3686723;-46
2022/01/26 09:38:38;;;;;;;;;105.00;81.33;;;;;2.93;88.27;100621.78;6290104;20;3698280;-48
2022/01/26 09:41:08;;;;;;;;;100.33;69.33;;;;;3.09;87.39;100628.59;6287268;20;3663858;-46
2022/01/26 09:43:38;;;;;;;;;92.00;68.00;;;;;2.90;87.88;100620.03;6285841;20;3654482;-45
2022/01/26 09:46:12;;;;;;;;;99.00;69.67;;;;;2.92;88.52;100618.22;6318635;20;3679421;-48
2022/01/26 09:48:43;;;;;;;;;93.00;67.00;;;;;2.89;88.52;100609.44;6286499;20;3652301;-46
2022/01/26 09:51:16;;;;;;;;;90.67;68.67;;;;;2.84;87.65;100614.81;6317993;20;3647257;-45
2022/01/26 09:54:10;;;;;;;;;87.33;63.33;;;;;3.06;87.44;100610.06;6286436;20;3653360;-47
2022/01/26 09:56:43;;;;;;;;;86.67;65.00;;;;;3.25;87.54;100608.00;6319616;20;3647571;-46
2022/01/26 09:59:14;;;;;;;;;82.67;64.67;;;;;3.36;86.25;100602.50;6318990;20;3627503;-46
2022/01/26 10:01:50;;;;;;;;;94.33;66.67;;;;;3.26;85.80;100607.94;6318550;20;3651279;-48
2022/01/26 10:04:40;;;;;;;;;98.33;75.33;;;;;3.61;85.64;100611.78;6286119;20;3679456;-45
2022/01/26 10:15:34;;;;;;;;;90.00;65.00;;;;;3.53;85.64;100597.78;6320264;20;3657536;-42
2022/01/26 10:18:16;;;;;;;;;82.00;60.67;;;;;3.48;85.62;100589.88;6282119;20;3651441;-43
2022/01/26 10:20:57;;;;;;;;;86.67;64.00;;;;;3.72;84.58;100588.56;6318632;20;3637789;-41
2022/01/26 10:23:40;;;;;;;;;80.33;56.00;;;;;4.00;83.80;100577.38;6316997;20;3650188;-41
2022/01/26 10:26:14;;;;;;;;;75.00;58.00;;;;;4.51;82.20;100579.84;6286432;20;2885634;-43
2022/01/26 10:28:57;;;;;;;;;70.33;52.33;;;;;4.59;81.98;100577.88;6319870;20;3631498;-42
2022/01/26 10:31:36;;;;;;;;;67.67;52.00;;;;;4.28;81.52;100567.03;6322623;20;3628413;-42
2022/01/26 10:34:14;;;;;;;;;63.33;50.00;;;;;4.37;81.59;100571.28;6317289;20;2871191;-44
2022/01/26 10:36:48;;;;;;;;;72.67;55.67;;;;;4.33;82.51;100570.47;6320526;20;3632531;-42
2022/01/26 10:42:10;;;;;;;;;71.67;53.00;;;;;4.65;80.69;100565.34;6320880;20;3632673;-42
2022/01/26 10:44:50;;;;;;;;;64.00;49.00;;;;;4.64;80.82;100552.97;6318639;20;3622101;-42
2022/01/26 10:47:35;;;;;;;;;70.67;53.00;;;;;4.90;79.98;100561.22;6318023;20;3625262;-43
2022/01/26 10:50:46;;;;;;;;;68.00;52.33;;;;;4.86;79.86;100559.53;6319136;20;3628332;-41
2022/01/26 10:53:17;;;;;;;;;74.00;53.33;;;;;5.43;77.94;100547.44;6318592;20;3645018;-41
2022/01/26 10:55:47;;;;;;;;;69.00;52.67;;;;;5.43;77.93;100550.13;6319331;20;3626221;-42
2022/01/26 10:58:17;;;;;;;;;79.33;64.33;;;;;5.33;77.13;100546.81;6318559;20;2884590;-42
2022/01/26 11:00:46;;;;;;;;;45.50;39.00;;;;;5.33;78.21;100541.50;6319764;20;2854668;-42
2022/01/26 11:03:15;;;;;;;;;50.50;38.50;;;;;5.80;76.48;100549.97;6289169;20;2864859;-42
2022/01/26 11:05:45;;;;;;;;;49.67;38.67;;;;;5.27;77.31;100533.66;6288152;20;2860776;-45
2022/01/26 11:08:14;;;;;;;;;52.50;39.50;;;;;5.39;76.76;100533.31;6317195;20;2852313;-45
2022/01/26 11:10:47;;;;;;;;;52.00;38.33;;;;;5.41;76.38;100528.84;6280571;20;3620001;-42
2022/01/26 11:13:39;;;;;;;;;40.50;39.00;;;;;5.18;77.12;100525.91;6316659;20;2869094;-44
2022/01/26 11:16:12;;;;;;;;;42.00;34.33;;;;;5.21;78.13;100528.50;6286796;20;3616999;-42
2022/01/26 11:18:49;;;;;;;;;48.33;38.67;;;;;5.09;78.26;100524.38;6317626;20;3615902;-43
2022/01/26 11:21:36;;;;;;;;;44.67;37.67;;;;;5.32;78.36;100526.44;6320423;20;3604471;-44
2022/01/26 11:24:24;;;;;;;;;41.00;37.00;;;;;5.14;77.48;100524.25;6283891;20;2864908;-43
2022/01/26 11:27:06;;;;;;;;;36.33;28.33;;;;;5.27;77.85;100523.88;6316519;20;2861748;-43
2022/01/26 11:29:40;;;;;;;;;43.00;36.33;;;;;5.15;78.08;100518.00;6320669;20;3622067;-43
2022/01/26 11:32:34;;;;;;;;;60.67;42.33;;;;;5.50;76.49;100525.03;6284353;20;2872241;-42
2022/01/26 11:35:09;;;;;;;;;53.33;40.33;;;;;5.37;76.42;100512.97;6315831;20;3607537;-42
2022/01/26 11:37:45;;;;;;;;;36.50;34.00;;;;;5.20;77.64;100516.09;6318694;20;2853400;-43
2022/01/26 11:46:11;;;;;;;;;39.00;33.67;;;;;5.19;76.77;100511.69;6318889;20;2862886;-44
2022/01/26 11:48:41;;;;;;;;;43.67;37.00;;;;;5.23;76.45;100510.69;6315986;20;2857561;-45
2022/01/26 11:51:10;;;;;;;;;37.33;34.00;;;;;5.09;76.62;100507.53;6313781;20;2867090;-43
2022/01/26 11:53:40;;;;;;;;;34.00;29.00;;;;;5.42;76.02;100503.94;6315614;20;2848209;-43
2022/01/26 11:56:19;;;;;;;;;24.00;19.00;;;;;5.28;76.16;100495.47;6286817;20;2850256;-44
2022/01/26 11:58:52;;;;;;;;;40.67;33.00;;;;;5.38;76.00;100499.63;6288436;20;2867016;-44
2022/01/26 12:01:29;;;;;;;;;43.00;36.50;;;;;5.45;75.69;100493.22;6318692;20;2864873;-44
2022/01/26 12:04:09;;;;;;;;;35.50;30.50;;;;;5.66;76.38;100498.84;6278741;20;2500274;-45
2022/01/26 12:06:43;;;;;;;;;35.00;32.00;;;;;5.46;76.16;100496.75;6287979;20;2854430;-45
2022/01/26 12:09:12;;;;;;;;;38.00;33.00;;;;;5.55;75.79;100490.31;6285741;20;2849279;-46
2022/01/26 12:11:46;;;;;;;;;20.33;20.33;;;;;5.31;75.82;100487.41;6285714;20;3554422;-45
2022/01/26 12:14:19;;;;;;;;;28.50;27.00;;;;;5.21;77.15;100485.88;6281929;20;2839910;-43
2022/01/26 12:16:53;;;;;;;;;31.50;24.00;;;;;5.21;77.02;100491.22;6287811;20;2863856;-47
2022/01/26 12:36:30;;;;;;;;;30.50;24.50;;;;;5.28;75.77;100476.84;6284231;20;2856930;-45
2022/01/26 12:39:02;;;;;;;;;30.50;21.50;;;;;5.09;76.17;100468.47;6285974;20;2860960;-44
2022/01/26 12:41:35;;;;;;;;;41.33;34.00;;;;;5.23;76.05;100468.09;6284374;20;2868187;-45
2022/01/26 12:44:12;;;;;;;;;31.00;27.50;;;;;5.14;76.86;100463.03;6315642;20;2839858;-45
2022/01/26 12:46:42;;;;;;;;;33.50;32.50;;;;;5.28;76.83;100460.84;6286465;20;2847171;-44
2022/01/26 12:49:17;;;;;;;;;34.00;30.00;;;;;5.00;77.03;100466.94;6286136;20;2851322;-43
2022/01/26 12:51:52;;;;;;;;;36.33;24.33;;;;;4.98;77.54;100462.56;6282427;20;3616936;-42
2022/01/26 12:54:21;;;;;;;;;32.50;28.50;;;;;4.94;77.69;100467.06;6312544;20;2853357;-43
2022/01/26 12:57:06;;;;;;;;;55.33;44.00;;;;;4.87;77.44;100468.16;6282632;20;3595055;-43
2022/01/26 12:59:35;;;;;;;;;42.00;33.00;;;;;4.81;76.60;100470.97;6318272;20;3617911;-43
2022/01/26 13:02:04;;;;;;;;;46.00;39.50;;;;;5.19;76.26;100471.78;6286079;20;2857514;-43
2022/01/26 13:04:34;;;;;;;;;37.67;32.00;;;;;5.49;75.47;100470.03;6283958;20;2855497;-43
2022/01/26 13:07:05;;;;;;;;;38.33;34.33;;;;;6.01;74.01;100470.34;6317152;20;2853495;-43
2022/01/26 13:09:41;;;;;;;;;33.00;27.50;;;;;5.70;75.00;100474.75;6315691;20;2852301;-45
2022/01/26 13:12:10;;;;;;;;;26.50;26.50;;;;;5.56;76.04;100465.44;6285169;20;2500256;-42
2022/01/26 13:37:15;;;;;;;;;38.00;25.00;;;;;5.81;75.11;100455.78;6285219;20;3614915;-44
2022/01/26 13:52:45;;;;;;;;;26.33;23.00;;;;;5.15;76.38;100454.13;6289933;20;3564809;-43
2022/01/26 14:00:41;;;;;;;;;23.00;19.00;;;;;4.84;77.29;100465.56;6315892;20;2479567;-42
2022/01/26 14:03:13;;;;;;;;;25.50;23.50;;;;;4.88;77.21;100461.06;6289864;20;2843967;-43
2022/01/26 14:05:41;;;;;;;;;34.50;28.50;;;;;4.71;77.76;100453.47;6289610;20;2850235;-42
2022/01/26 14:08:10;;;;;;;;;29.00;28.00;;;;;4.83;77.58;100455.84;6289150;20;2837978;-42
2022/01/26 14:10:43;;;;;;;;;40.00;31.50;;;;;4.92;77.56;100462.69;6289004;20;2853444;-43
2022/01/26 14:13:18;;;;;;;;;45.67;36.33;;;;;4.70;77.80;100454.41;6286347;20;3613740;-43
2022/01/26 14:15:51;;;;;;;;;51.00;40.33;;;;;4.87;78.10;100462.84;6321102;20;2866905;-43
2022/01/26 14:21:07;;;;;;;;;32.00;28.00;;;;;4.79;78.27;100460.38;6287760;20;2863760;-45
2022/01/26 14:26:23;;;;;;;;;56.67;42.67;;;;;4.70;79.34;100459.72;6318577;20;2879401;-45